Lowman, New York
Current Conditions -  °F | °C
As of 8:53 PM on Monday 24 Nov 2014 (Local Time) from KELM Reporting Station
Clear Clear  
Wind Chill: 64°   Ceiling: Unl
Heat Index: 64°   Visibility: 10mi
Dew Point: 37°   Wind: 22mph
Humidity: 37%   Direction: 240°WSW
Pressure: 29.57"   Gusts: 44mph
Location:  42.03°N, 76.72°W
Report Text: KELM 250153Z AUTO 24019G38KT 10SM CLR 18/03 A2957 RMK AO2 PK WND 25039/0131 SLP010 T01780028
Loading
Personal Weather Stations






























Interactive Weather Map New forecast layout! Learn more

10-Day Weather Forecast

Advertisements
Track Severe Weather on mobile